Time;durP1;ratioP1;P1;durP2;ratioP2;P2;SDS_P1;SDS_P2;PMS_P1;PMS_P2;Temp;Humidity;BMP_temperature;BMP_pressure;BME280_temperature;BME280_humidity;BME280_pressure;Samples;Min_cycle;Max_cycle;Signal;HPM_P1;HPM_P2
2022/01/01 00:01:54;;;;;;;1.70;1.33;;;14.00;99.90;;;;;;4993405;28;20312;-71
2022/01/01 00:04:20;;;;;;;2.10;1.90;;;13.90;99.90;;;;;;4993195;28;20619;-70
2022/01/01 00:06:45;;;;;;;1.93;1.83;;;13.90;99.90;;;;;;4992520;28;20214;-71
2022/01/01 00:09:11;;;;;;;2.73;1.33;;;14.00;99.90;;;;;;4989644;28;20181;-69
2022/01/01 00:11:36;;;;;;;1.53;1.20;;;13.90;99.90;;;;;;4988129;28;20185;-70
2022/01/01 00:14:02;;;;;;;0.80;0.80;;;13.90;99.90;;;;;;4990809;28;20567;-70
2022/01/01 00:16:28;;;;;;;2.60;2.40;;;13.90;99.90;;;;;;4992729;28;20180;-70
2022/01/01 00:18:53;;;;;;;0.90;0.90;;;13.90;99.90;;;;;;4992924;28;20181;-70
2022/01/01 00:21:19;;;;;;;1.27;1.17;;;13.80;99.90;;;;;;4992975;28;20431;-70
2022/01/01 00:23:44;;;;;;;1.60;1.50;;;13.90;99.90;;;;;;4980175;28;20213;-71
2022/01/01 00:26:10;;;;;;;1.73;1.63;;;13.90;99.90;;;;;;4986305;28;20632;-70
2022/01/01 00:28:36;;;;;;;1.53;1.30;;;13.90;99.90;;;;;;4984776;28;20208;-70
2022/01/01 00:31:01;;;;;;;0.80;0.73;;;13.80;99.90;;;;;;4992772;28;20257;-69
2022/01/01 00:33:29;;;;;;;2.73;1.57;;;13.90;99.90;;;;;;4992650;28;20193;-70
2022/01/01 00:35:54;;;;;;;1.40;1.30;;;13.80;99.90;;;;;;4992618;28;20533;-70
2022/01/01 00:38:20;;;;;;;1.27;1.17;;;13.80;99.90;;;;;;4992073;28;20473;-70
2022/01/01 00:40:45;;;;;;;0.90;0.90;;;13.80;99.90;;;;;;4989970;28;20181;-69
2022/01/01 00:43:11;;;;;;;0.90;0.70;;;13.80;99.90;;;;;;4973945;28;20193;-70
2022/01/01 00:45:36;;;;;;;0.80;0.80;;;13.80;99.90;;;;;;4988051;28;20208;-70
2022/01/01 00:48:02;;;;;;;2.63;2.43;;;13.80;99.90;;;;;;4990310;28;20188;-70
2022/01/01 00:50:28;;;;;;;1.93;1.20;;;13.80;99.90;;;;;;4991875;28;20183;-69
2022/01/01 00:52:53;;;;;;;2.97;2.60;;;13.90;99.90;;;;;;4992204;28;20609;-70
2022/01/01 00:55:19;;;;;;;0.70;0.70;;;13.90;99.90;;;;;;4991516;28;20678;-70
2022/01/01 00:57:47;;;;;;;1.63;0.83;;;13.90;99.90;;;;;;4991387;28;20192;-70
2022/01/01 01:00:12;;;;;;;1.00;1.00;;;13.90;99.90;;;;;;4992469;28;20443;-70
2022/01/01 01:02:38;;;;;;;1.77;1.43;;;13.90;99.90;;;;;;4976317;28;20613;-71
2022/01/01 01:05:04;;;;;;;1.53;1.00;;;13.80;99.90;;;;;;4994606;28;20196;-71
2022/01/01 01:07:29;;;;;;;2.50;1.27;;;13.80;99.90;;;;;;4986722;28;20204;-70
2022/01/01 01:09:55;;;;;;;2.50;2.10;;;13.80;99.90;;;;;;4982810;28;20859;-71
2022/01/01 01:12:25;;;;;;;2.13;1.87;;;13.80;99.90;;;;;;4989784;28;20645;-69
2022/01/01 01:14:52;;;;;;;0.87;0.87;;;13.80;99.90;;;;;;4992042;28;20205;-70
2022/01/01 01:17:17;;;;;;;2.03;1.30;;;13.80;99.90;;;;;;4990706;28;20431;-70
2022/01/01 01:19:43;;;;;;;3.87;3.67;;;13.90;99.90;;;;;;4990891;28;20968;-70
2022/01/01 01:22:08;;;;;;;1.77;1.17;;;13.80;99.90;;;;;;4991064;28;20547;-70
2022/01/01 01:24:34;;;;;;;2.00;1.70;;;13.90;99.90;;;;;;4990935;28;20208;-70
2022/01/01 01:27:03;;;;;;;1.07;1.07;;;13.90;99.90;;;;;;4991279;28;20201;-70
2022/01/01 01:29:36;;;;;;;1.47;1.23;;;13.90;99.90;;;;;;4992224;28;20490;-70
2022/01/01 01:32:02;;;;;;;7.50;1.20;;;13.90;99.90;;;;;;4990421;28;20765;-70
2022/01/01 01:34:28;;;;;;;1.90;0.97;;;13.90;99.90;;;;;;4975524;28;20584;-70
2022/01/01 01:36:53;;;;;;;2.07;1.57;;;13.90;99.90;;;;;;4982036;28;20181;-70
2022/01/01 01:39:19;;;;;;;2.93;2.73;;;13.90;99.90;;;;;;4989427;28;20204;-70
2022/01/01 01:41:46;;;;;;;1.40;0.90;;;13.90;99.90;;;;;;4991599;28;20189;-71
2022/01/01 01:44:33;;;;;;;1.10;1.07;;;13.90;99.90;;;;;;4991469;28;20204;-70
2022/01/01 01:47:04;;;;;;;1.47;0.90;;;13.90;99.90;;;;;;4991353;28;20467;-70
2022/01/01 01:49:30;;;;;;;2.03;1.90;;;13.90;99.90;;;;;;4991953;28;20992;-70
2022/01/01 01:51:56;;;;;;;1.33;1.27;;;13.90;99.90;;;;;;4991308;28;20424;-70
2022/01/01 01:54:22;;;;;;;6.00;1.67;;;13.90;99.90;;;;;;4986810;28;20580;-70
2022/01/01 01:56:48;;;;;;;0.70;0.60;;;13.90;99.90;;;;;;4988282;28;20467;-70
2022/01/01 01:59:15;;;;;;;6.73;1.30;;;13.80;99.90;;;;;;4994992;28;20203;-70
2022/01/01 02:01:41;;;;;;;4.17;3.80;;;13.80;99.90;;;;;;4990878;28;20443;-70
2022/01/01 02:04:06;;;;;;;2.03;1.93;;;13.90;99.90;;;;;;4981752;28;20460;-70
2022/01/01 02:06:34;;;;;;;2.80;2.27;;;13.90;99.90;;;;;;4987474;28;20463;-70
2022/01/01 02:08:59;;;;;;;1.50;1.40;;;13.80;99.90;;;;;;4985745;28;20182;-71
2022/01/01 02:11:25;;;;;;;6.70;1.30;;;13.90;99.90;;;;;;4980591;28;20886;-71
2022/01/01 02:18:48;;;;;;;0.77;0.73;;;13.90;99.90;;;;;;4994105;28;20436;-70
2022/01/01 02:21:14;;;;;;;2.50;1.30;;;13.90;99.90;;;;;;4994877;28;20448;-70
2022/01/01 02:23:43;;;;;;;1.77;1.37;;;13.90;99.90;;;;;;4994517;28;20482;-70
2022/01/01 02:26:12;;;;;;;1.20;1.10;;;13.90;99.90;;;;;;4994715;28;20465;-70
2022/01/01 02:28:46;;;;;;;0.83;0.67;;;13.90;99.90;;;;;;4994410;28;20436;-71
2022/01/01 02:31:12;;;;;;;1.43;1.33;;;13.90;99.90;;;;;;4994475;28;20439;-70
2022/01/01 02:33:38;;;;;;;0.80;0.80;;;13.90;99.90;;;;;;4994197;28;20499;-71
2022/01/01 02:36:05;;;;;;;2.10;1.47;;;13.90;99.90;;;;;;4993088;28;20822;-71
2022/01/01 02:38:35;;;;;;;1.03;1.00;;;13.80;99.90;;;;;;4986226;28;20475;-69
2022/01/01 02:41:00;;;;;;;1.93;1.83;;;13.80;99.90;;;;;;4975593;28;20468;-71
2022/01/01 02:43:26;;;;;;;1.90;1.77;;;13.80;99.90;;;;;;4979287;28;21026;-71
2022/01/01 02:45:53;;;;;;;1.30;1.20;;;13.80;99.90;;;;;;4989161;28;20244;-71
2022/01/01 02:48:18;;;;;;;0.70;0.60;;;13.80;99.90;;;;;;4994153;28;20447;-70
2022/01/01 02:50:44;;;;;;;1.23;1.17;;;13.80;99.90;;;;;;4991579;28;20436;-70
2022/01/01 02:53:16;;;;;;;0.83;0.80;;;13.80;99.90;;;;;;4983146;28;20563;-71
2022/01/01 02:55:43;;;;;;;3.10;0.97;;;13.80;99.90;;;;;;4987234;28;20192;-70
2022/01/01 02:58:11;;;;;;;1.20;1.07;;;13.80;99.90;;;;;;4994101;28;20535;-70
2022/01/01 03:00:38;;;;;;;2.83;1.37;;;13.80;99.90;;;;;;4994370;28;20431;-71
2022/01/01 03:03:04;;;;;;;0.80;0.80;;;13.70;99.90;;;;;;4994401;28;20416;-70
2022/01/01 03:05:31;;;;;;;0.90;0.80;;;13.80;99.90;;;;;;4993712;28;20543;-70
2022/01/01 03:07:57;;;;;;;1.80;1.50;;;13.80;99.90;;;;;;4979233;28;20212;-70
2022/01/01 03:10:22;;;;;;;2.03;1.83;;;13.80;99.90;;;;;;4988294;28;20524;-70
2022/01/01 03:12:48;;;;;;;1.17;1.07;;;13.80;99.90;;;;;;4988242;28;20527;-70
2022/01/01 03:15:13;;;;;;;0.90;0.90;;;13.80;99.90;;;;;;4993932;28;20216;-70
2022/01/01 03:17:39;;;;;;;2.80;1.20;;;13.80;99.90;;;;;;4992867;28;20216;-70
2022/01/01 03:20:06;;;;;;;2.73;2.50;;;13.80;99.90;;;;;;4980744;28;20461;-70
2022/01/01 03:22:31;;;;;;;0.83;0.83;;;13.80;99.90;;;;;;4993410;28;20185;-70
2022/01/01 03:24:57;;;;;;;1.50;1.37;;;13.80;99.90;;;;;;4993383;28;20455;-70
2022/01/01 03:27:22;;;;;;;1.00;0.80;;;13.80;99.90;;;;;;4991001;28;20209;-70
2022/01/01 03:29:48;;;;;;;1.17;1.00;;;13.70;99.90;;;;;;4990708;28;20177;-70
2022/01/01 03:32:14;;;;;;;1.00;0.90;;;13.70;99.90;;;;;;4982775;28;20178;-70
2022/01/01 03:34:39;;;;;;;2.17;0.90;;;13.70;99.90;;;;;;4992361;28;20201;-70
2022/01/01 03:37:05;;;;;;;0.90;0.80;;;13.70;99.90;;;;;;4992880;28;20526;-70
2022/01/01 03:39:31;;;;;;;1.43;1.30;;;13.60;99.90;;;;;;4992267;28;20627;-70
2022/01/01 03:41:56;;;;;;;2.43;1.37;;;13.60;99.90;;;;;;4993238;28;20173;-70
2022/01/01 03:44:22;;;;;;;0.70;0.70;;;13.60;99.90;;;;;;4993074;28;20204;-71
2022/01/01 03:46:47;;;;;;;2.10;2.00;;;13.60;99.90;;;;;;4992522;28;20201;-70
2022/01/01 03:49:13;;;;;;;0.70;0.70;;;13.60;99.90;;;;;;4993593;28;20223;-70
2022/01/01 03:51:39;;;;;;;0.70;0.60;;;13.60;99.90;;;;;;4990584;28;20181;-70
2022/01/01 03:54:05;;;;;;;1.40;1.30;;;13.60;99.90;;;;;;4993003;28;20534;-70
2022/01/01 03:56:30;;;;;;;1.13;1.13;;;13.60;99.90;;;;;;4986690;28;20432;-70
2022/01/01 03:58:56;;;;;;;2.00;1.40;;;13.50;99.90;;;;;;4992220;28;20183;-71
2022/01/01 04:01:21;;;;;;;1.40;1.17;;;13.50;99.90;;;;;;4980269;28;20176;-71
2022/01/01 04:03:47;;;;;;;0.97;0.90;;;13.50;99.90;;;;;;4981748;28;20197;-70
2022/01/01 04:06:13;;;;;;;1.47;1.37;;;13.50;99.90;;;;;;4991030;28;20566;-70
2022/01/01 04:08:38;;;;;;;0.70;0.60;;;13.50;99.90;;;;;;4993055;28;20193;-71
2022/01/01 04:11:04;;;;;;;0.70;0.60;;;13.40;99.90;;;;;;4992439;28;20181;-71
2022/01/01 04:13:29;;;;;;;1.67;0.73;;;13.40;99.90;;;;;;4992895;28;20675;-70
2022/01/01 04:15:55;;;;;;;0.80;0.70;;;13.50;99.90;;;;;;4992476;28;20188;-71
2022/01/01 04:18:37;;;;;;;0.80;0.70;;;13.50;99.90;;;;;;4980653;28;20177;-71
2022/01/01 04:21:04;;;;;;;1.20;0.70;;;13.50;99.90;;;;;;4988855;28;20176;-71
2022/01/01 04:23:29;;;;;;;1.20;1.10;;;13.50;99.90;;;;;;4991625;28;20495;-70
2022/01/01 04:25:55;;;;;;;1.43;1.33;;;13.40;99.90;;;;;;4992324;28;20861;-71
2022/01/01 04:28:20;;;;;;;1.00;0.80;;;13.50;99.90;;;;;;4992918;28;20637;-71
2022/01/01 04:30:46;;;;;;;0.70;0.67;;;13.40;99.90;;;;;;4992388;28;20276;-70
2022/01/01 04:33:12;;;;;;;0.73;0.73;;;13.50;99.90;;;;;;4992111;28;20176;-70
2022/01/01 04:35:37;;;;;;;0.70;0.70;;;13.40;99.90;;;;;;4975280;28;20189;-71
2022/01/01 04:38:03;;;;;;;18.90;1.17;;;13.50;99.90;;;;;;4992293;28;20173;-71
2022/01/01 04:40:29;;;;;;;0.70;0.70;;;13.40;99.90;;;;;;4991843;28;20180;-71
2022/01/01 04:42:54;;;;;;;2.70;0.97;;;13.40;99.90;;;;;;4992187;28;20909;-70
2022/01/01 04:45:20;;;;;;;0.70;0.70;;;13.50;99.90;;;;;;4990964;28;20193;-70
2022/01/01 04:47:45;;;;;;;0.70;0.70;;;13.50;99.90;;;;;;4991155;28;20196;-70
2022/01/01 04:50:11;;;;;;;0.70;0.70;;;13.50;99.90;;;;;;4992392;28;20181;-71
2022/01/01 04:52:37;;;;;;;2.80;2.70;;;13.50;99.90;;;;;;4991886;28;20223;-70
2022/01/01 04:55:03;;;;;;;0.70;0.60;;;13.50;99.90;;;;;;4991452;28;20598;-70
2022/01/01 04:57:30;;;;;;;0.90;0.70;;;13.50;99.90;;;;;;4989891;28;20181;-70
2022/01/01 04:59:56;;;;;;;0.80;0.77;;;13.50;99.90;;;;;;4991941;28;20841;-70
2022/01/01 05:02:22;;;;;;;0.70;0.60;;;13.50;99.90;;;;;;4975387;28;20464;-71
2022/01/01 05:04:47;;;;;;;1.10;1.00;;;13.50;99.90;;;;;;4987539;28;20988;-71
2022/01/01 05:07:13;;;;;;;1.53;1.10;;;13.50;99.90;;;;;;4991640;28;20495;-71
2022/01/01 05:09:38;;;;;;;1.57;1.13;;;13.50;99.90;;;;;;4990557;28;20168;-72
2022/01/01 05:12:04;;;;;;;1.53;1.43;;;13.50;99.90;;;;;;4992382;28;20208;-71
2022/01/01 05:14:31;;;;;;;0.70;0.60;;;13.50;99.90;;;;;;4992219;28;20273;-71
2022/01/01 05:16:57;;;;;;;0.70;0.70;;;13.50;99.90;;;;;;4988437;28;20435;-71
2022/01/01 05:19:22;;;;;;;0.90;0.90;;;13.50;99.90;;;;;;4980898;28;20431;-71
2022/01/01 05:21:48;;;;;;;0.70;0.60;;;13.50;99.90;;;;;;4990013;28;20200;-71
2022/01/01 05:24:18;;;;;;;1.03;0.80;;;13.50;99.90;;;;;;4991112;28;20197;-71
2022/01/01 05:26:44;;;;;;;0.70;0.60;;;13.60;99.90;;;;;;4981433;28;20193;-71
2022/01/01 05:29:10;;;;;;;0.70;0.60;;;13.50;99.90;;;;;;4978019;28;20432;-70
2022/01/01 05:31:36;;;;;;;0.90;0.90;;;13.50;99.90;;;;;;4994399;28;20916;-70
2022/01/01 05:34:03;;;;;;;0.70;0.60;;;13.50;99.90;;;;;;4983035;28;20194;-70
2022/01/01 05:36:29;;;;;;;3.30;1.83;;;13.50;99.90;;;;;;4989661;28;20212;-71
2022/01/01 05:38:54;;;;;;;0.70;0.60;;;13.50;99.90;;;;;;4994970;28;20459;-70
2022/01/01 05:41:20;;;;;;;0.70;0.60;;;13.50;99.90;;;;;;4988913;28;20176;-70
2022/01/01 05:43:45;;;;;;;0.70;0.60;;;13.50;99.90;;;;;;4993633;28;20212;-70
2022/01/01 05:46:11;;;;;;;0.87;0.87;;;13.50;99.90;;;;;;4994334;28;20223;-71
2022/01/01 05:48:38;;;;;;;0.70;0.70;;;13.40;99.90;;;;;;4994599;28;20204;-70
2022/01/01 05:51:04;;;;;;;0.80;0.60;;;13.40;99.90;;;;;;4995523;28;20801;-71
2022/01/01 05:53:29;;;;;;;1.43;0.90;;;13.40;99.90;;;;;;4994366;28;20475;-70
2022/01/01 05:55:55;;;;;;;0.70;0.60;;;13.40;99.90;;;;;;4992894;28;20530;-70
2022/01/01 05:58:20;;;;;;;1.00;0.80;;;13.40;99.90;;;;;;4984371;28;20177;-71
2022/01/01 06:00:46;;;;;;;1.17;1.17;;;13.40;99.90;;;;;;4988878;28;20201;-70
2022/01/01 06:03:11;;;;;;;0.70;0.70;;;13.40;99.90;;;;;;4982897;28;20618;-71
2022/01/01 06:05:37;;;;;;;0.80;0.80;;;13.40;99.90;;;;;;4984739;28;22353;-70
2022/01/01 06:08:03;;;;;;;1.00;1.00;;;13.40;99.90;;;;;;4981280;28;20323;-70
2022/01/01 06:10:29;;;;;;;1.30;1.20;;;13.40;99.90;;;;;;4982932;28;20421;-70
2022/01/01 06:12:55;;;;;;;2.57;2.47;;;13.40;99.90;;;;;;4990896;28;20172;-71
2022/01/01 06:15:20;;;;;;;0.70;0.60;;;13.40;99.90;;;;;;4990509;28;21671;-71
2022/01/01 06:17:46;;;;;;;1.53;1.43;;;13.40;99.90;;;;;;4984002;28;20514;-71
2022/01/01 06:20:12;;;;;;;0.70;0.60;;;13.40;99.90;;;;;;4984544;28;20181;-71
2022/01/01 06:22:38;;;;;;;0.80;0.80;;;13.40;99.90;;;;;;4994984;28;20213;-71
2022/01/01 06:25:05;;;;;;;0.70;0.60;;;13.40;99.90;;;;;;4993884;28;20876;-71
2022/01/01 06:27:30;;;;;;;0.70;0.70;;;13.40;99.90;;;;;;4993362;28;20209;-70
2022/01/01 06:29:56;;;;;;;0.70;0.60;;;13.30;99.90;;;;;;4989609;28;20432;-71
2022/01/01 06:32:21;;;;;;;3.70;2.93;;;13.40;99.90;;;;;;4993298;28;20177;-70
2022/01/01 06:34:47;;;;;;;0.70;0.70;;;13.30;99.90;;;;;;4994665;28;20193;-70
2022/01/01 06:37:13;;;;;;;1.13;1.03;;;13.30;99.90;;;;;;4994873;28;20176;-71
2022/01/01 06:39:38;;;;;;;0.90;0.60;;;13.30;99.90;;;;;;4994335;28;20216;-70
2022/01/01 06:42:04;;;;;;;0.70;0.60;;;13.30;99.90;;;;;;4994393;28;20647;-70
2022/01/01 06:44:30;;;;;;;1.03;0.80;;;13.20;99.90;;;;;;4993642;28;20288;-71
2022/01/01 06:46:55;;;;;;;7.23;1.00;;;13.30;99.90;;;;;;4991388;28;20209;-72
2022/01/01 06:49:21;;;;;;;0.70;0.60;;;13.20;99.90;;;;;;4993608;28;20256;-70
2022/01/01 06:51:46;;;;;;;0.70;0.60;;;13.20;99.90;;;;;;4994256;28;20230;-70
2022/01/01 06:54:12;;;;;;;0.70;0.60;;;13.30;99.90;;;;;;4994430;28;20218;-70
2022/01/01 06:56:37;;;;;;;2.07;1.67;;;13.30;99.90;;;;;;4994632;28;20185;-70
2022/01/01 06:59:03;;;;;;;0.70;0.63;;;13.20;99.90;;;;;;4990206;28;20180;-71
2022/01/01 07:01:29;;;;;;;3.07;1.13;;;13.20;99.90;;;;;;4987933;28;20260;-71
2022/01/01 07:03:55;;;;;;;0.70;0.60;;;13.20;99.90;;;;;;4994367;28;20232;-71
2022/01/01 07:06:20;;;;;;;1.17;1.17;;;13.30;99.90;;;;;;4992929;28;20277;-71
2022/01/01 07:08:46;;;;;;;1.33;0.90;;;13.20;99.90;;;;;;4993504;28;20458;-70
2022/01/01 07:11:12;;;;;;;1.07;1.03;;;13.20;99.90;;;;;;4988436;28;20212;-70
2022/01/01 07:13:38;;;;;;;0.70;0.60;;;13.20;99.90;;;;;;4984701;28;20196;-70
2022/01/01 07:16:04;;;;;;;0.70;0.70;;;13.20;99.90;;;;;;4994100;28;20857;-70
2022/01/01 07:18:30;;;;;;;0.70;0.60;;;13.20;99.90;;;;;;4985555;28;20192;-71
2022/01/01 07:20:55;;;;;;;0.70;0.60;;;13.20;99.90;;;;;;4993820;28;20443;-70
2022/01/01 07:23:21;;;;;;;0.70;0.70;;;13.20;99.90;;;;;;4993431;28;20550;-70
2022/01/01 07:25:46;;;;;;;0.70;0.60;;;13.10;99.90;;;;;;4993361;28;20283;-70
2022/01/01 07:28:14;;;;;;;0.70;0.60;;;13.10;99.90;;;;;;4993479;28;20543;-70
2022/01/01 07:30:40;;;;;;;0.70;0.60;;;13.00;99.90;;;;;;5008486;28;20634;-70
2022/01/01 07:33:06;;;;;;;0.70;0.70;;;13.00;99.90;;;;;;4992628;28;20435;-70
2022/01/01 07:35:36;;;;;;;6.10;1.07;;;13.00;99.90;;;;;;4992076;28;20432;-71
2022/01/01 07:38:01;;;;;;;0.80;0.80;;;13.00;99.90;;;;;;4994068;28;20311;-71
2022/01/01 07:40:28;;;;;;;1.07;0.97;;;13.00;99.90;;;;;;4984705;28;20507;-71
2022/01/01 07:42:54;;;;;;;0.80;0.80;;;13.10;99.90;;;;;;4997224;28;20169;-71
2022/01/01 07:45:19;;;;;;;0.70;0.60;;;13.10;99.90;;;;;;4993894;28;20454;-71
2022/01/01 07:47:45;;;;;;;0.70;0.60;;;13.10;99.90;;;;;;4994199;28;20212;-72
2022/01/01 07:50:11;;;;;;;0.70;0.60;;;13.10;99.90;;;;;;4991876;28;20220;-72
2022/01/01 07:52:37;;;;;;;0.70;0.60;;;13.10;99.90;;;;;;4993607;28;20183;-71
2022/01/01 07:55:03;;;;;;;4.20;1.53;;;13.10;99.90;;;;;;4989517;28;20217;-69
2022/01/01 07:57:28;;;;;;;12.27;1.00;;;13.10;99.90;;;;;;4987536;28;20482;-70
2022/01/01 07:59:54;;;;;;;0.80;0.80;;;13.10;99.90;;;;;;4992221;28;20432;-70
2022/01/01 08:02:19;;;;;;;0.70;0.60;;;13.10;99.90;;;;;;4976289;28;20606;-70
2022/01/01 08:04:45;;;;;;;0.70;0.50;;;13.10;99.90;;;;;;4992278;28;20890;-72
2022/01/01 08:07:11;;;;;;;0.70;0.60;;;13.20;99.90;;;;;;4993335;28;20220;-71
2022/01/01 08:09:38;;;;;;;1.30;1.17;;;13.20;99.90;;;;;;4992455;28;20798;-70
2022/01/01 08:12:07;;;;;;;2.50;1.97;;;13.30;99.90;;;;;;4993143;28;20169;-70
2022/01/01 08:14:33;;;;;;;1.00;1.00;;;13.20;99.90;;;;;;4992812;28;20467;-70
2022/01/01 08:17:04;;;;;;;0.70;0.60;;;13.30;99.90;;;;;;4982822;28;20429;-69
2022/01/01 08:19:30;;;;;;;0.70;0.63;;;13.40;99.90;;;;;;5001153;28;20188;-71
2022/01/01 08:21:56;;;;;;;0.70;0.60;;;13.40;99.90;;;;;;4989006;28;20443;-70
2022/01/01 08:24:22;;;;;;;0.70;0.70;;;13.50;99.90;;;;;;4976632;28;20208;-70
2022/01/01 08:26:48;;;;;;;0.70;0.70;;;13.60;99.90;;;;;;4992790;28;20965;-71
2022/01/01 08:29:14;;;;;;;3.90;1.20;;;13.60;99.90;;;;;;4991765;28;20432;-70
2022/01/01 08:31:40;;;;;;;1.63;0.80;;;13.70;99.90;;;;;;4991197;28;20952;-70
2022/01/01 08:34:05;;;;;;;0.70;0.60;;;13.70;99.90;;;;;;4988344;28;20969;-70
2022/01/01 08:36:31;;;;;;;1.00;0.90;;;13.70;99.90;;;;;;4988497;28;20184;-70
2022/01/01 08:38:57;;;;;;;0.70;0.70;;;13.70;99.90;;;;;;5015701;28;20750;-70
2022/01/01 08:41:22;;;;;;;7.13;2.10;;;13.80;99.90;;;;;;4992731;28;20267;-70
2022/01/01 08:43:48;;;;;;;1.00;0.70;;;13.90;99.90;;;;;;4990810;28;20275;-71
2022/01/01 08:46:13;;;;;;;0.70;0.60;;;13.90;99.90;;;;;;4978711;28;20208;-70
2022/01/01 08:48:41;;;;;;;2.27;1.33;;;14.00;99.90;;;;;;4993452;28;20188;-71
2022/01/01 08:51:18;;;;;;;0.73;0.73;;;14.10;99.90;;;;;;4991283;28;20185;-71
2022/01/01 08:53:44;;;;;;;0.70;0.63;;;14.10;99.90;;;;;;4990959;28;20447;-71
2022/01/01 08:56:10;;;;;;;0.70;0.60;;;14.20;99.90;;;;;;4990627;28;20519;-70
2022/01/01 08:58:35;;;;;;;0.77;0.73;;;14.10;99.90;;;;;;4976732;28;20560;-71
2022/01/01 09:01:02;;;;;;;0.70;0.60;;;14.30;99.90;;;;;;4984900;28;20534;-70
2022/01/01 09:03:28;;;;;;;0.70;0.60;;;14.30;99.90;;;;;;4991274;28;20213;-70
2022/01/01 09:05:53;;;;;;;0.70;0.70;;;14.20;99.90;;;;;;4986237;28;20470;-71
2022/01/01 09:08:19;;;;;;;0.80;0.60;;;14.30;99.90;;;;;;4991307;28;20169;-71
2022/01/01 09:10:44;;;;;;;0.90;0.70;;;14.30;99.90;;;;;;4988144;28;20185;-71
2022/01/01 09:13:10;;;;;;;0.70;0.60;;;14.40;99.90;;;;;;4978437;28;20173;-71
2022/01/01 09:15:36;;;;;;;0.70;0.60;;;14.50;99.90;;;;;;4986113;28;20188;-70
2022/01/01 09:18:01;;;;;;;0.97;0.77;;;14.50;99.90;;;;;;4981423;28;20184;-70
2022/01/01 09:20:27;;;;;;;1.20;0.90;;;14.60;99.90;;;;;;4983695;28;20258;-70
2022/01/01 09:22:52;;;;;;;1.00;0.70;;;14.50;99.90;;;;;;4992438;28;20181;-70
2022/01/01 09:25:18;;;;;;;1.37;1.00;;;14.80;99.90;;;;;;4992117;28;20200;-70
2022/01/01 09:27:43;;;;;;;0.70;0.60;;;15.10;99.90;;;;;;4991556;28;20197;-70
2022/01/01 09:30:09;;;;;;;0.80;0.80;;;15.40;99.90;;;;;;4992902;28;20264;-70
2022/01/01 09:32:36;;;;;;;1.10;1.00;;;15.80;99.90;;;;;;4992022;28;20639;-71
2022/01/01 09:35:02;;;;;;;25.67;1.47;;;16.10;99.90;;;;;;4992613;28;20979;-70
2022/01/01 09:37:29;;;;;;;1.93;0.80;;;16.40;99.90;;;;;;4993328;28;20468;-71
2022/01/01 09:39:56;;;;;;;2.63;1.33;;;16.70;99.90;;;;;;4992861;28;20478;-70
2022/01/01 09:42:22;;;;;;;0.70;0.60;;;16.70;99.90;;;;;;4985686;28;20432;-70
2022/01/01 09:44:49;;;;;;;0.73;0.70;;;16.80;99.90;;;;;;4990222;28;20981;-70
2022/01/01 09:47:15;;;;;;;0.90;0.80;;;16.50;99.90;;;;;;4991178;28;20464;-72
2022/01/01 09:49:41;;;;;;;1.57;1.23;;;16.80;99.90;;;;;;4992019;28;20426;-70
2022/01/01 09:52:06;;;;;;;0.77;0.63;;;16.90;99.90;;;;;;4986749;28;20436;-71
2022/01/01 09:54:33;;;;;;;1.00;0.97;;;16.60;99.90;;;;;;4988561;28;20213;-70
2022/01/01 09:56:59;;;;;;;0.80;0.70;;;16.50;99.90;;;;;;4992102;28;20582;-70
2022/01/01 09:59:24;;;;;;;0.70;0.63;;;16.50;99.90;;;;;;4991689;28;20519;-70
2022/01/01 10:01:50;;;;;;;0.80;0.70;;;16.80;99.90;;;;;;4990256;28;20209;-69
2022/01/01 10:04:17;;;;;;;1.23;0.90;;;16.70;99.90;;;;;;4991502;28;20200;-70
2022/01/01 10:06:43;;;;;;;0.70;0.60;;;16.70;99.90;;;;;;4990665;28;20209;-71
2022/01/01 10:09:09;;;;;;;1.10;1.00;;;16.80;99.90;;;;;;4990644;28;20435;-69
2022/01/01 10:11:34;;;;;;;0.70;0.70;;;17.20;99.90;;;;;;4990147;28;20449;-70
2022/01/01 10:14:07;;;;;;;0.70;0.60;;;17.30;99.90;;;;;;4991198;28;20460;-70
2022/01/01 10:16:39;;;;;;;0.90;0.60;;;17.30;99.90;;;;;;4990584;28;20181;-70
2022/01/01 10:19:04;;;;;;;1.37;1.27;;;18.00;99.90;;;;;;4991538;28;20498;-70
2022/01/01 10:21:37;;;;;;;1.10;0.90;;;18.30;99.90;;;;;;4993947;28;20518;-70
2022/01/01 10:24:03;;;;;;;0.90;0.90;;;17.90;99.90;;;;;;4995311;28;20193;-70
2022/01/01 10:29:14;;;;;;;0.70;0.60;;;17.50;99.90;;;;;;4996271;28;20184;-71
2022/01/01 10:31:54;;;;;;;0.80;0.70;;;17.20;99.90;;;;;;4995172;28;20436;-70
2022/01/01 10:34:21;;;;;;;1.73;0.90;;;17.30;99.90;;;;;;4995148;28;20189;-71
2022/01/01 10:36:52;;;;;;;0.70;0.70;;;17.00;99.90;;;;;;4986628;28;20531;-71
2022/01/01 10:39:18;;;;;;;2.00;1.73;;;17.20;99.90;;;;;;4982327;28;20490;-71
2022/01/01 10:41:46;;;;;;;0.70;0.70;;;16.70;99.90;;;;;;4990787;28;20447;-72
2022/01/01 10:44:12;;;;;;;0.80;0.70;;;16.70;99.90;;;;;;4994383;28;20556;-71
2022/01/01 10:46:38;;;;;;;4.40;0.87;;;16.70;99.90;;;;;;4994477;28;21045;-70
2022/01/01 10:49:33;;;;;;;1.27;0.90;;;16.70;99.90;;;;;;4995200;28;20642;-70
2022/01/01 10:52:23;;;;;;;1.37;1.27;;;16.60;99.90;;;;;;4980223;28;20420;-70
2022/01/01 10:54:50;;;;;;;0.70;0.60;;;16.80;99.90;;;;;;4995644;28;20463;-70
2022/01/01 10:57:37;;;;;;;1.00;0.90;;;17.10;99.90;;;;;;4994729;28;20440;-71
2022/01/01 11:00:11;;;;;;;0.90;0.70;;;16.80;99.90;;;;;;4992446;28;20463;-71
2022/01/01 11:02:39;;;;;;;1.13;1.03;;;17.00;99.90;;;;;;4989678;28;20991;-70
2022/01/01 11:05:06;;;;;;;11.93;2.10;;;16.80;99.90;;;;;;4993423;28;20550;-71
2022/01/01 11:07:32;;;;;;;9.00;1.57;;;17.30;99.90;;;;;;4975280;28;20471;-70
2022/01/01 11:09:59;;;;;;;0.70;0.60;;;17.30;99.90;;;;;;4992981;28;20416;-69
2022/01/01 11:12:29;;;;;;;0.87;0.80;;;17.00;99.90;;;;;;4987903;28;20439;-70
2022/01/01 11:14:56;;;;;;;0.73;0.70;;;16.60;99.90;;;;;;4993366;28;20487;-70
2022/01/01 11:17:23;;;;;;;0.90;0.70;;;16.90;99.90;;;;;;4990058;28;20441;-71
2022/01/01 11:19:49;;;;;;;0.93;0.83;;;17.00;99.90;;;;;;4982671;28;20972;-70
2022/01/01 11:22:18;;;;;;;0.97;0.97;;;17.20;99.90;;;;;;4981982;28;20428;-70
2022/01/01 11:24:44;;;;;;;1.00;0.90;;;17.60;99.90;;;;;;4993999;28;20637;-70
2022/01/01 11:27:09;;;;;;;0.97;0.77;;;17.70;99.90;;;;;;4992409;28;20559;-71
2022/01/01 11:29:35;;;;;;;0.90;0.80;;;18.00;99.90;;;;;;4993296;28;20181;-70
2022/01/01 11:32:06;;;;;;;1.27;0.90;;;18.40;99.90;;;;;;4993239;28;20507;-71
2022/01/01 11:34:36;;;;;;;1.17;0.87;;;18.50;99.90;;;;;;4993600;28;20810;-71
2022/01/01 11:37:03;;;;;;;0.77;0.67;;;18.60;99.90;;;;;;4989408;28;20467;-71
2022/01/01 11:39:29;;;;;;;1.00;0.80;;;18.50;99.90;;;;;;4993086;28;20432;-70
2022/01/01 11:42:12;;;;;;;0.80;0.80;;;18.60;99.90;;;;;;4989606;28;20455;-71
2022/01/01 11:44:41;;;;;;;1.00;0.90;;;18.80;99.90;;;;;;4993715;28;20201;-71
2022/01/01 11:47:22;;;;;;;1.33;0.87;;;18.70;99.90;;;;;;4991206;28;20490;-70
2022/01/01 11:49:48;;;;;;;1.00;0.70;;;19.30;99.90;;;;;;4987560;28;20435;-69
2022/01/01 11:52:37;;;;;;;0.80;0.70;;;19.40;99.90;;;;;;4991630;28;20946;-70
2022/01/01 11:55:10;;;;;;;0.80;0.67;;;20.30;99.90;;;;;;4987708;28;20614;-70
2022/01/01 11:57:36;;;;;;;1.10;1.00;;;21.00;99.90;;;;;;4988960;28;20444;-70
2022/01/01 12:00:11;;;;;;;0.80;0.70;;;20.80;99.90;;;;;;4976375;28;20443;-70
2022/01/01 12:02:41;;;;;;;4.73;0.80;;;21.30;99.90;;;;;;4976627;28;20180;-72
2022/01/01 12:05:07;;;;;;;5.90;0.93;;;21.40;99.90;;;;;;4984462;28;20455;-70
2022/01/01 12:07:54;;;;;;;0.80;0.60;;;20.50;99.90;;;;;;4977354;28;20467;-70
2022/01/01 12:10:26;;;;;;;0.80;0.80;;;19.70;99.90;;;;;;4980819;28;20272;-70
2022/01/01 12:12:54;;;;;;;0.90;0.83;;;20.30;99.90;;;;;;4982592;28;20437;-70
2022/01/01 12:15:20;;;;;;;1.00;0.90;;;20.70;99.90;;;;;;4978042;28;20457;-69
2022/01/01 12:18:08;;;;;;;1.13;1.03;;;20.80;99.90;;;;;;4984094;28;20432;-70
2022/01/01 12:20:38;;;;;;;0.90;0.80;;;21.30;99.90;;;;;;4992193;28;20178;-71
2022/01/01 12:23:12;;;;;;;0.80;0.70;;;21.60;99.90;;;;;;4979431;28;21401;-67
2022/01/01 12:25:39;;;;;;;1.40;0.97;;;21.10;99.90;;;;;;4992831;28;20411;-69
2022/01/01 12:28:08;;;;;;;0.90;0.70;;;21.10;99.90;;;;;;4991691;28;20792;-71
2022/01/01 12:30:36;;;;;;;1.50;0.87;;;21.20;99.90;;;;;;4990034;28;20444;-69
2022/01/01 12:33:03;;;;;;;0.87;0.70;;;22.20;99.90;;;;;;4973278;28;21144;-69
2022/01/01 12:35:40;;;;;;;0.90;0.70;;;21.90;99.90;;;;;;4981996;28;20451;-68
2022/01/01 12:38:12;;;;;;;0.80;0.70;;;22.00;99.90;;;;;;4983174;28;20432;-70
2022/01/01 12:40:56;;;;;;;2.60;0.80;;;22.50;99.90;;;;;;4989447;28;20428;-70
2022/01/01 12:43:22;;;;;;;1.07;0.97;;;22.40;99.90;;;;;;4986558;28;20437;-71
2022/01/01 12:45:52;;;;;;;1.17;0.97;;;23.00;99.90;;;;;;4990597;28;20533;-70
2022/01/01 12:48:28;;;;;;;0.80;0.70;;;22.90;99.90;;;;;;4991715;28;20436;-71
2022/01/01 12:50:57;;;;;;;0.80;0.80;;;22.00;99.90;;;;;;4991930;28;20478;-71
2022/01/01 12:53:25;;;;;;;0.90;0.70;;;22.70;99.90;;;;;;4991965;28;20443;-71